Terminal Aerodrome Forecast
Issued by NWS Cleveland, OH

Home | Current Version | Previous Version | Text Only | Print | Product List | Glossary On
Versions: 1 2 3 4 5 6 7 8 9 10 11 12 13 14 15 16
000
FTUS41 KCLE 270536
TAFCAK
TAF
KCAK 270536Z 2706/2806 20010KT P6SM SCT008 BKN080
      TEMPO 2706/2710 BKN008 OVC080
     FM271000 22008KT 4SM BR SCT004
     FM271400 22012G22KT P6SM BKN015
     FM271600 22015G25KT P6SM BKN040
     FM271900 23015G25KT P6SM BKN050
      TEMPO 2722/2801 3SM -TSRA OVC035CB
     FM280400 26008KT 6SM BR VCSH BKN035 OVC080=

USA.gov is the U.S. government's official web portal to all federal, state and local government web resources and services.